createdAt,value
2023-06-08T00:00:21.254Z,16.80
2023-06-08T00:05:24.630Z,16.76
2023-06-08T00:10:27.709Z,16.78
2023-06-08T00:15:31.339Z,16.77
2023-06-08T00:20:36.034Z,16.78
2023-06-08T00:25:38.977Z,16.81
2023-06-08T00:30:41.768Z,16.81
2023-06-08T00:35:44.596Z,16.80
2023-06-08T00:40:47.684Z,16.82
2023-06-08T00:45:52.837Z,16.81
2023-06-08T00:50:58.648Z,16.80
2023-06-08T00:56:02.460Z,16.77
2023-06-08T01:01:06.091Z,16.70
2023-06-08T01:06:09.624Z,16.75
2023-06-08T01:11:47.376Z,16.73
2023-06-08T01:16:53.288Z,16.74
2023-06-08T01:22:28.232Z,16.72
2023-06-08T01:27:38.437Z,16.72
2023-06-08T01:32:42.476Z,16.68
2023-06-08T01:37:53.616Z,16.66
2023-06-08T01:42:57.071Z,16.66
2023-06-08T01:48:07.732Z,16.65
2023-06-08T01:53:12.353Z,16.59
2023-06-08T01:58:15.465Z,16.63
2023-06-08T02:03:18.431Z,16.64
2023-06-08T02:08:21.970Z,16.66
2023-06-08T02:13:24.958Z,16.72
2023-06-08T02:18:28.460Z,16.72
2023-06-08T02:23:31.571Z,16.68
2023-06-08T02:28:35.090Z,16.66
2023-06-08T02:33:38.733Z,16.69
2023-06-08T02:38:41.617Z,16.68
2023-06-08T02:43:44.545Z,16.69
2023-06-08T02:48:47.898Z,16.66
2023-06-08T02:53:51.047Z,16.67
2023-06-08T02:58:55.513Z,16.68
2023-06-08T03:03:58.618Z,16.65
2023-06-08T03:09:01.549Z,16.65
2023-06-08T03:14:04.693Z,16.67
2023-06-08T03:19:08.058Z,16.70
2023-06-08T03:24:11.693Z,16.72
2023-06-08T03:29:14.868Z,16.71
2023-06-08T03:34:18.924Z,16.76
2023-06-08T03:39:22.613Z,16.78
2023-06-08T03:44:25.656Z,16.80
2023-06-08T03:49:28.545Z,16.83
2023-06-08T03:54:32.084Z,16.89
2023-06-08T03:59:35.157Z,16.92
2023-06-08T04:04:40.549Z,16.96
2023-06-08T04:09:44.208Z,16.95
2023-06-08T04:14:47.087Z,16.97
2023-06-08T04:19:51.018Z,17.03
2023-06-08T04:24:54.062Z,17.10
2023-06-08T04:29:58.528Z,17.16
2023-06-08T04:35:01.560Z,17.20
2023-06-08T04:40:05.734Z,17.28
2023-06-08T04:45:09.685Z,17.33
2023-06-08T04:50:12.832Z,17.39
2023-06-08T04:55:15.965Z,17.40
2023-06-08T05:00:19.889Z,17.42
2023-06-08T05:05:22.816Z,17.48
2023-06-08T05:10:25.779Z,17.54
2023-06-08T05:15:31.875Z,17.57
2023-06-08T05:20:34.884Z,17.63
2023-06-08T05:25:38.614Z,17.65
2023-06-08T05:30:41.703Z,17.73
2023-06-08T05:35:44.618Z,17.77
2023-06-08T05:40:47.684Z,17.85
2023-06-08T05:45:50.600Z,17.85
2023-06-08T05:50:53.564Z,17.81
2023-06-08T05:55:56.670Z,17.81
2023-06-08T06:01:00.533Z,17.79
2023-06-08T06:06:03.649Z,17.84
2023-06-08T06:11:07.114Z,17.89
2023-06-08T06:16:10.635Z,17.93
2023-06-08T06:21:15.256Z,17.90
2023-06-08T06:26:18.143Z,17.92
2023-06-08T06:31:21.212Z,17.92
2023-06-08T06:36:24.743Z,17.96
2023-06-08T06:41:28.157Z,18.04
2023-06-08T06:46:31.075Z,18.06
2023-06-08T06:51:34.289Z,18.07
2023-06-08T06:56:37.169Z,18.11
2023-06-08T07:01:40.348Z,18.14
2023-06-08T07:06:44.235Z,18.16
2023-06-08T07:11:53.091Z,18.30
2023-06-08T07:17:05.298Z,18.37
2023-06-08T07:22:10.479Z,18.46
2023-06-08T07:27:27.375Z,18.57
2023-06-08T07:32:31.285Z,18.55
2023-06-08T07:37:37.459Z,18.53
2023-06-08T07:42:40.620Z,18.50
2023-06-08T07:47:43.823Z,18.50
2023-06-08T07:52:47.110Z,18.51
2023-06-08T07:57:49.989Z,18.50
2023-06-08T08:02:52.959Z,18.60
2023-06-08T08:07:56.300Z,18.67
2023-06-08T08:12:59.416Z,18.70
2023-06-08T08:18:03.267Z,18.76
2023-06-08T08:23:07.201Z,18.88
2023-06-08T08:28:10.029Z,18.99
2023-06-08T08:33:17.499Z,19.14
2023-06-08T08:38:20.728Z,19.14
2023-06-08T08:43:36.645Z,19.12
2023-06-08T08:48:46.887Z,19.16
2023-06-08T08:53:52.325Z,19.15
2023-06-08T08:58:56.039Z,19.18
2023-06-08T09:04:00.686Z,19.27
2023-06-08T09:09:04.715Z,19.37
2023-06-08T09:14:10.206Z,19.49
2023-06-08T09:19:13.677Z,19.70
2023-06-08T09:24:20.519Z,19.90
2023-06-08T09:29:39.216Z,20.07
2023-06-08T09:35:02.102Z,20.19
2023-06-08T09:40:07.456Z,20.31
2023-06-08T09:45:15.026Z,20.32
2023-06-08T09:50:20.186Z,20.24
2023-06-08T09:55:24.844Z,20.24
2023-06-08T10:00:30.203Z,20.46
2023-06-08T10:05:34.653Z,20.56
2023-06-08T10:10:39.351Z,20.70
2023-06-08T10:15:43.668Z,20.90
2023-06-08T10:20:47.174Z,21.04
2023-06-08T10:25:52.172Z,21.24
2023-06-08T10:30:55.064Z,21.28
2023-06-08T10:36:13.300Z,21.53
2023-06-08T10:41:39.537Z,21.71
2023-06-08T10:46:44.165Z,21.78
2023-06-08T10:51:47.118Z,21.97
2023-06-08T10:57:12.313Z,22.06
2023-06-08T11:02:17.634Z,22.22
2023-06-08T11:07:27.257Z,22.31
2023-06-08T11:12:31.423Z,22.34
2023-06-08T11:17:51.743Z,22.41
2023-06-08T11:22:54.976Z,22.50
2023-06-08T11:27:59.216Z,22.52
2023-06-08T11:33:09.846Z,22.53
2023-06-08T11:38:13.213Z,22.65
2023-06-08T11:43:16.820Z,22.49
2023-06-08T11:48:24.553Z,22.25
2023-06-08T11:53:28.082Z,21.96
2023-06-08T11:58:34.018Z,21.71
2023-06-08T12:03:49.646Z,21.50
2023-06-08T12:08:53.816Z,21.28
2023-06-08T12:13:57.344Z,21.13
2023-06-08T12:19:00.900Z,20.80
2023-06-08T12:24:04.531Z,20.33
2023-06-08T12:29:10.904Z,19.74
2023-06-08T12:34:14.001Z,19.28
2023-06-08T12:39:17.344Z,19.03
2023-06-08T12:44:20.542Z,18.84
2023-06-08T12:49:24.127Z,18.73
2023-06-08T12:54:27.165Z,18.61
2023-06-08T12:59:30.907Z,18.65
2023-06-08T13:04:34.118Z,18.70
2023-06-08T13:09:39.464Z,18.87
2023-06-08T13:14:42.549Z,18.94
2023-06-08T13:19:46.623Z,19.07
2023-06-08T13:24:50.248Z,19.17
2023-06-08T13:29:53.206Z,19.26
2023-06-08T13:34:59.496Z,19.39
2023-06-08T13:40:02.539Z,19.57
2023-06-08T13:45:06.670Z,19.76
2023-06-08T13:50:11.949Z,19.96
2023-06-08T13:55:15.383Z,20.13
2023-06-08T14:00:18.789Z,20.27
2023-06-08T14:05:22.143Z,20.54
2023-06-08T14:10:25.394Z,20.74
2023-06-08T14:15:28.341Z,20.78
2023-06-08T14:20:35.198Z,20.85
2023-06-08T14:25:38.087Z,20.99
2023-06-08T14:30:42.870Z,21.10
2023-06-08T14:35:47.225Z,21.37
2023-06-08T14:40:50.453Z,21.67
2023-06-08T14:45:53.362Z,21.87
2023-06-08T14:50:57.227Z,22.11
2023-06-08T14:56:00.207Z,22.38
2023-06-08T15:01:03.100Z,22.49
2023-06-08T15:06:06.322Z,22.44
2023-06-08T15:11:10.127Z,22.30
2023-06-08T15:16:13.317Z,22.34
2023-06-08T15:21:16.457Z,22.27
2023-06-08T15:26:19.471Z,22.23
2023-06-08T15:31:23.114Z,22.22
2023-06-08T15:36:26.495Z,22.28
2023-06-08T15:41:29.654Z,22.48
2023-06-08T15:46:35.163Z,22.95
2023-06-08T15:51:43.325Z,23.55
2023-06-08T15:56:46.371Z,23.84
2023-06-08T16:01:49.273Z,23.99
2023-06-08T16:06:52.249Z,24.02
2023-06-08T16:11:55.191Z,23.81
2023-06-08T16:16:58.426Z,23.67
2023-06-08T16:22:04.236Z,23.12
2023-06-08T16:27:07.503Z,22.61
2023-06-08T16:32:11.140Z,22.22
2023-06-08T16:37:14.148Z,21.87
2023-06-08T16:42:19.660Z,21.67
2023-06-08T16:47:25.453Z,21.50
2023-06-08T16:52:28.464Z,21.33
2023-06-08T16:57:33.748Z,21.22
2023-06-08T17:02:37.393Z,21.02
2023-06-08T17:07:42.910Z,20.90
2023-06-08T17:12:46.103Z,20.84
2023-06-08T17:17:49.113Z,20.82
2023-06-08T17:22:52.230Z,20.76
2023-06-08T17:27:55.342Z,20.71
2023-06-08T17:32:59.497Z,20.64
2023-06-08T17:38:02.499Z,20.61
2023-06-08T17:43:05.430Z,20.55
2023-06-08T17:48:08.431Z,20.49
2023-06-08T17:53:13.444Z,20.44
2023-06-08T17:58:17.067Z,20.35
2023-06-08T18:03:20.117Z,20.27
2023-06-08T18:08:23.289Z,20.21
2023-06-08T18:13:26.795Z,20.02
2023-06-08T18:18:29.775Z,19.84
2023-06-08T18:23:32.964Z,19.75
2023-06-08T18:28:36.148Z,19.71
2023-06-08T18:33:39.848Z,19.63
2023-06-08T18:38:42.903Z,19.57
2023-06-08T18:43:46.190Z,19.50
2023-06-08T18:48:49.054Z,19.41
2023-06-08T18:53:52.439Z,19.31
2023-06-08T18:58:56.690Z,19.16
2023-06-08T19:03:59.992Z,19.09
2023-06-08T19:09:03.178Z,19.04
2023-06-08T19:14:06.122Z,18.91
2023-06-08T19:19:09.490Z,18.83
2023-06-08T19:24:12.879Z,18.81
2023-06-08T19:29:16.032Z,18.74
2023-06-08T19:34:20.311Z,18.67
2023-06-08T19:39:23.625Z,18.50
2023-06-08T19:44:26.846Z,18.37
2023-06-08T19:49:31.894Z,18.27
2023-06-08T19:54:34.854Z,18.20
2023-06-08T19:59:39.888Z,18.18
2023-06-08T20:04:42.797Z,18.12
2023-06-08T20:09:46.528Z,18.05
2023-06-08T20:14:49.330Z,18.02
2023-06-08T20:19:53.918Z,18.01
2023-06-08T20:24:57.651Z,17.98
2023-06-08T20:30:00.602Z,18.00
2023-06-08T20:35:06.878Z,17.98
2023-06-08T20:40:12.236Z,17.98
2023-06-08T20:45:15.131Z,17.95
2023-06-08T20:50:18.202Z,17.89
2023-06-08T20:55:22.656Z,17.88
2023-06-08T21:00:25.907Z,17.80
2023-06-08T21:05:32.489Z,17.81
2023-06-08T21:10:37.008Z,17.82
2023-06-08T21:15:39.895Z,17.85
2023-06-08T21:20:42.736Z,17.86
2023-06-08T21:25:45.641Z,17.87
2023-06-08T21:30:48.689Z,17.90
2023-06-08T21:36:09.523Z,17.94
2023-06-08T21:41:13.697Z,17.98
2023-06-08T21:46:16.522Z,17.99
2023-06-08T21:51:19.558Z,18.04
2023-06-08T21:56:22.704Z,18.05
2023-06-08T22:01:26.818Z,18.05
2023-06-08T22:06:30.026Z,18.05
2023-06-08T22:11:33.237Z,18.04
2023-06-08T22:16:38.785Z,18.05
2023-06-08T22:21:42.192Z,18.07
2023-06-08T22:26:46.846Z,18.05
2023-06-08T22:31:50.018Z,18.07
2023-06-08T22:36:53.391Z,18.10
2023-06-08T22:41:56.165Z,18.11
2023-06-08T22:47:00.824Z,18.09
2023-06-08T22:52:04.216Z,18.07
2023-06-08T22:57:07.877Z,18.06
2023-06-08T23:02:10.994Z,18.04
2023-06-08T23:07:16.078Z,18.01
2023-06-08T23:12:20.240Z,17.97
2023-06-08T23:17:26.531Z,17.99
2023-06-08T23:22:30.608Z,17.99
2023-06-08T23:27:34.313Z,17.95
2023-06-08T23:32:37.467Z,18.01
2023-06-08T23:37:40.911Z,18.03
2023-06-08T23:42:44.080Z,18.06
2023-06-08T23:47:47.129Z,18.06
2023-06-08T23:52:49.971Z,18.02
2023-06-08T23:57:53.103Z,18.00
